Time;durP1;ratioP1;P1;durP2;ratioP2;P2;SDS_P1;SDS_P2;PMS_P1;PMS_P2;Temp;Humidity;BMP_temperature;BMP_pressure;BME280_temperature;BME280_humidity;BME280_pressure;Samples;Min_cycle;Max_cycle;Signal;HPM_P1;HPM_P2
2023/06/04 00:02:52;;;;;;;21.65;5.07;;;8.20;99.90;;;;;;10211215;29;20314;-81
2023/06/04 00:07:55;;;;;;;35.53;5.82;;;8.00;99.90;;;;;;10210255;29;20270;-81
2023/06/04 00:12:57;;;;;;;27.48;5.70;;;8.00;99.90;;;;;;10210726;29;20268;-81
2023/06/04 00:18:00;;;;;;;37.30;5.07;;;7.90;99.90;;;;;;10211113;29;20299;-81
2023/06/04 00:23:03;;;;;;;10.88;4.63;;;7.80;99.90;;;;;;10210240;29;20681;-81
2023/06/04 00:28:06;;;;;;;21.58;5.15;;;7.90;99.90;;;;;;10193164;29;20303;-81
2023/06/04 00:33:09;;;;;;;16.17;4.20;;;7.80;99.90;;;;;;10173241;29;20699;-81
2023/06/04 00:38:11;;;;;;;12.65;5.30;;;7.70;99.90;;;;;;10182853;29;20243;-81
2023/06/04 00:43:14;;;;;;;16.80;5.68;;;7.70;99.90;;;;;;10192740;29;20790;-81
2023/06/04 00:48:17;;;;;;;14.13;4.63;;;7.60;99.90;;;;;;10193065;29;20247;-81
2023/06/04 00:53:22;;;;;;;12.57;5.13;;;7.70;99.90;;;;;;10192024;29;20342;-81
2023/06/04 00:58:25;;;;;;;24.80;5.25;;;7.60;99.90;;;;;;10191568;29;20701;-81
2023/06/04 01:03:31;;;;;;;11.13;4.38;;;7.60;99.90;;;;;;10209290;29;20250;-81
2023/06/04 01:08:35;;;;;;;11.50;4.32;;;7.70;99.90;;;;;;10191808;29;20302;-81
2023/06/04 01:13:38;;;;;;;13.57;4.57;;;7.50;99.90;;;;;;10208717;29;20306;-81
2023/06/04 01:18:41;;;;;;;14.48;4.90;;;7.40;99.90;;;;;;10208812;29;20239;-81
2023/06/04 01:23:58;;;;;;;9.45;5.00;;;7.20;99.90;;;;;;10189438;29;20270;-81
2023/06/04 01:29:02;;;;;;;8.65;3.67;;;7.30;99.90;;;;;;10191034;29;20246;-81
2023/06/04 01:34:07;;;;;;;11.13;4.82;;;7.30;99.90;;;;;;10190700;29;20262;-81
2023/06/04 01:39:12;;;;;;;7.45;3.47;;;7.20;99.90;;;;;;10206409;29;20691;-81
2023/06/04 01:44:15;;;;;;;9.55;4.78;;;7.20;99.90;;;;;;10189710;29;20666;-80
2023/06/04 01:49:17;;;;;;;6.15;4.25;;;7.10;99.90;;;;;;10207720;29;20246;-81
2023/06/04 01:54:20;;;;;;;10.73;5.18;;;7.00;99.90;;;;;;10207422;29;20294;-81
2023/06/04 01:59:23;;;;;;;9.35;4.57;;;6.90;99.90;;;;;;10188660;29;20270;-81
2023/06/04 02:04:26;;;;;;;9.00;4.82;;;6.70;99.90;;;;;;10189833;29;20215;-81
2023/06/04 02:09:28;;;;;;;9.10;4.70;;;6.50;99.90;;;;;;10189666;29;20637;-81
2023/06/04 02:14:31;;;;;;;7.60;4.72;;;6.70;99.90;;;;;;10189544;29;20340;-81
2023/06/04 02:19:33;;;;;;;6.97;4.65;;;6.60;99.90;;;;;;10189969;29;20576;-81
2023/06/04 02:24:36;;;;;;;8.00;3.45;;;6.70;99.90;;;;;;10204793;29;20289;-81
2023/06/04 02:29:40;;;;;;;8.43;4.40;;;6.60;99.90;;;;;;10189717;29;20242;-81
2023/06/04 02:34:42;;;;;;;8.07;5.07;;;6.80;99.90;;;;;;10206182;29;20341;-81
2023/06/04 02:39:45;;;;;;;9.10;4.95;;;6.60;99.90;;;;;;10188203;29;20328;-81
2023/06/04 02:44:48;;;;;;;5.78;4.68;;;6.50;99.90;;;;;;10205996;29;20326;-82
2023/06/04 02:49:50;;;;;;;7.03;4.43;;;6.60;99.90;;;;;;10180086;29;20313;-81
2023/06/04 02:54:53;;;;;;;5.60;3.78;;;6.60;99.90;;;;;;10196657;29;20325;-81
2023/06/04 02:59:55;;;;;;;5.38;3.90;;;6.70;99.90;;;;;;10213002;29;20310;-81
2023/06/04 03:04:58;;;;;;;8.95;4.45;;;6.80;99.90;;;;;;10180809;29;20242;-81
2023/06/04 03:10:01;;;;;;;8.18;3.80;;;6.80;99.90;;;;;;10195821;29;20309;-81
2023/06/04 03:15:06;;;;;;;6.88;4.35;;;7.00;99.90;;;;;;10212468;29;20325;-81
2023/06/04 03:20:09;;;;;;;5.75;4.20;;;7.00;99.90;;;;;;10196142;29;20649;-81
2023/06/04 03:25:12;;;;;;;5.63;3.92;;;7.20;99.90;;;;;;10196017;29;20246;-81
2023/06/04 03:30:14;;;;;;;6.35;4.15;;;7.10;99.90;;;;;;10194987;29;20679;-81
2023/06/04 03:35:31;;;;;;;6.43;4.40;;;7.00;99.90;;;;;;10194285;29;20266;-81
2023/06/04 03:40:34;;;;;;;11.48;5.20;;;6.90;99.90;;;;;;10194065;29;20270;-81
2023/06/04 03:45:39;;;;;;;14.75;4.85;;;7.40;99.90;;;;;;10194718;29;20250;-81
2023/06/04 03:50:45;;;;;;;8.25;4.28;;;7.40;99.90;;;;;;10179081;29;20279;-81
2023/06/04 03:55:52;;;;;;;6.30;4.45;;;7.90;99.90;;;;;;10179501;29;20365;-81
2023/06/04 04:00:55;;;;;;;10.07;4.80;;;7.80;99.90;;;;;;10171839;29;20239;-81
2023/06/04 04:05:58;;;;;;;9.27;4.88;;;7.80;99.90;;;;;;10191835;29;20283;-81
2023/06/04 04:11:01;;;;;;;12.30;4.85;;;8.10;99.90;;;;;;10181713;29;20306;-81
2023/06/04 04:16:04;;;;;;;9.88;4.95;;;8.30;99.90;;;;;;10193920;29;20278;-81
2023/06/04 04:21:06;;;;;;;6.32;3.10;;;8.60;99.90;;;;;;10209087;29;20242;-81
2023/06/04 04:26:10;;;;;;;9.93;5.38;;;9.00;99.90;;;;;;10192022;29;20250;-81
2023/06/04 04:31:14;;;;;;;15.07;5.45;;;10.00;99.90;;;;;;10210459;29;20273;-81
2023/06/04 04:36:18;;;;;;;7.05;3.75;;;10.60;99.90;;;;;;10193175;29;20306;-81
2023/06/04 04:41:23;;;;;;;8.57;4.45;;;10.50;99.90;;;;;;10191338;29;20263;-81
2023/06/04 04:46:27;;;;;;;9.38;4.30;;;10.60;99.90;;;;;;10192001;29;20638;-81
2023/06/04 04:51:30;;;;;;;4.35;2.67;;;10.70;99.90;;;;;;10192138;29;20243;-81
2023/06/04 04:56:34;;;;;;;2.20;1.65;;;11.00;99.90;;;;;;10176449;29;20636;-81
2023/06/04 05:01:39;;;;;;;2.00;1.45;;;11.60;99.90;;;;;;10191296;29;20310;-81
2023/06/04 05:06:42;;;;;;;5.40;2.80;;;11.60;99.90;;;;;;10191912;29;20314;-81
2023/06/04 05:11:45;;;;;;;1.80;1.42;;;11.80;98.00;;;;;;10189953;29;20258;-81
2023/06/04 05:16:48;;;;;;;3.22;2.25;;;12.00;98.50;;;;;;10191430;29;20262;-81
2023/06/04 05:21:53;;;;;;;5.65;3.13;;;;;;;;;;10191470;29;20246;-81
2023/06/04 05:26:57;;;;;;;7.38;3.85;;;12.40;95.60;;;;;;10190677;29;20652;-81
2023/06/04 05:32:00;;;;;;;4.22;2.50;;;12.60;94.30;;;;;;10190118;29;20325;-81
2023/06/04 05:37:04;;;;;;;4.07;1.83;;;12.80;95.70;;;;;;10190925;29;20685;-81
2023/06/04 05:42:07;;;;;;;1.40;1.25;;;13.10;95.40;;;;;;10190187;29;20278;-81
2023/06/04 05:47:10;;;;;;;9.38;2.60;;;13.30;94.90;;;;;;10189499;29;20298;-81
2023/06/04 05:52:13;;;;;;;3.42;2.22;;;13.70;92.90;;;;;;10207071;29;20736;-81
2023/06/04 05:57:19;;;;;;;3.72;2.60;;;13.90;92.20;;;;;;10189922;29;20695;-81
2023/06/04 06:02:23;;;;;;;4.25;2.10;;;14.10;87.80;;;;;;10174683;29;20283;-81
2023/06/04 06:07:25;;;;;;;2.05;1.48;;;14.30;90.60;;;;;;10206441;29;20251;-81
2023/06/04 06:12:28;;;;;;;4.03;1.85;;;14.50;89.40;;;;;;10206937;29;20270;-81
2023/06/04 06:17:32;;;;;;;2.22;1.60;;;14.70;85.40;;;;;;10189650;29;20246;-81
2023/06/04 06:22:35;;;;;;;1.92;1.42;;;15.00;88.60;;;;;;10189388;29;20701;-81
2023/06/04 06:27:40;;;;;;;2.13;1.17;;;15.10;82.90;;;;;;10189135;29;20246;-81
2023/06/04 06:32:45;;;;;;;1.27;0.90;;;15.40;80.90;;;;;;10187953;29;20337;-81
2023/06/04 06:37:48;;;;;;;3.88;1.48;;;15.70;82.30;;;;;;10205946;29;20247;-82
2023/06/04 06:42:50;;;;;;;1.30;1.08;;;15.90;73.50;;;;;;10205988;29;20278;-81
2023/06/04 06:47:53;;;;;;;2.85;0.90;;;16.20;68.60;;;;;;10185757;29;20251;-81
2023/06/04 06:52:56;;;;;;;1.60;1.23;;;16.70;76.00;;;;;;10187877;29;20669;-82
2023/06/04 06:57:59;;;;;;;2.53;1.25;;;16.70;73.70;;;;;;10167635;29;20270;-81
2023/06/04 07:03:01;;;;;;;1.38;1.27;;;16.90;58.20;;;;;;10184690;29;20251;-81
2023/06/04 07:08:04;;;;;;;3.88;1.40;;;17.10;52.40;;;;;;10190531;29;20239;-81
2023/06/04 07:13:06;;;;;;;1.90;1.23;;;17.40;46.20;;;;;;10167290;29;20275;-81
2023/06/04 07:18:09;;;;;;;1.20;0.73;;;17.60;51.20;;;;;;10191784;29;20760;-82
2023/06/04 07:23:12;;;;;;;5.18;1.52;;;17.90;48.90;;;;;;10205299;29;20247;-82
2023/06/04 07:28:15;;;;;;;1.85;1.50;;;18.10;41.50;;;;;;10205233;29;20250;-81
2023/06/04 07:33:17;;;;;;;1.88;1.23;;;18.40;40.20;;;;;;10191220;29;20318;-81
2023/06/04 07:38:20;;;;;;;2.28;1.00;;;18.50;38.80;;;;;;10212000;29;20239;-81
2023/06/04 07:43:22;;;;;;;2.58;1.40;;;18.80;38.20;;;;;;10192326;29;20736;-81
2023/06/04 07:48:30;;;;;;;4.43;1.10;;;;;;;;;;10212042;29;20302;-81
2023/06/04 07:53:32;;;;;;;1.55;0.95;;;19.20;33.40;;;;;;10192909;29;20258;-81
2023/06/04 07:58:35;;;;;;;2.42;1.17;;;19.40;34.60;;;;;;10178264;29;20311;-81
2023/06/04 08:03:38;;;;;;;1.52;1.20;;;19.50;27.40;;;;;;10194277;29;20642;-81
2023/06/04 08:08:45;;;;;;;1.10;0.85;;;19.70;29.20;;;;;;10211319;29;20317;-82
2023/06/04 08:13:48;;;;;;;1.80;1.00;;;19.70;30.30;;;;;;10210314;29;20321;-82
2023/06/04 08:18:50;;;;;;;2.03;1.40;;;19.90;28.30;;;;;;10193130;29;20341;-82
2023/06/04 08:23:54;;;;;;;3.38;1.80;;;19.90;22.20;;;;;;10210224;29;20243;-82
2023/06/04 08:28:56;;;;;;;1.27;1.05;;;19.90;21.60;;;;;;10209144;29;20305;-81
2023/06/04 08:33:59;;;;;;;1.80;0.90;;;20.20;25.70;;;;;;10210889;29;20682;-82
2023/06/04 08:39:02;;;;;;;4.00;1.10;;;20.30;26.80;;;;;;10210140;29;20273;-82
2023/06/04 08:44:06;;;;;;;1.73;1.00;;;20.40;23.60;;;;;;10166734;29;20254;-81
2023/06/04 08:49:11;;;;;;;5.15;1.50;;;20.40;21.90;;;;;;10209926;29;20618;-85
2023/06/04 08:54:14;;;;;;;2.35;1.60;;;20.50;27.60;;;;;;10210108;29;20288;-81
2023/06/04 08:59:19;;;;;;;2.42;1.50;;;20.60;26.60;;;;;;10176760;29;20282;-81
2023/06/04 09:04:22;;;;;;;1.40;0.93;;;20.70;22.70;;;;;;10177014;29;20246;-81
2023/06/04 09:09:25;;;;;;;1.65;0.88;;;20.60;17.40;;;;;;10209120;29;20317;-81
2023/06/04 09:14:27;;;;;;;2.08;1.08;;;20.60;19.20;;;;;;10206811;29;20258;-81
2023/06/04 09:19:30;;;;;;;1.45;1.05;;;20.70;22.10;;;;;;10208627;29;20305;-81
2023/06/04 09:24:47;;;;;;;3.22;1.33;;;20.80;20.00;;;;;;10206983;29;20243;-83
2023/06/04 09:29:54;;;;;;;1.92;1.10;;;20.80;17.20;;;;;;10191783;29;20538;-83
2023/06/04 09:35:15;;;;;;;1.88;1.20;;;20.90;21.90;;;;;;10208674;29;20266;-83
2023/06/04 09:40:18;;;;;;;1.33;0.93;;;21.00;21.50;;;;;;10189865;29;20266;-84
2023/06/04 09:45:29;;;;;;;2.65;1.10;;;21.10;17.90;;;;;;10207416;29;20282;-85
2023/06/04 09:50:38;;;;;;;3.42;1.48;;;21.20;19.90;;;;;;10207459;29;20298;-85
2023/06/04 09:55:41;;;;;;;2.20;1.00;;;21.30;14.30;;;;;;10205562;29;20351;-84
2023/06/04 10:00:45;;;;;;;1.42;1.20;;;21.10;13.90;;;;;;10207655;29;20227;-85
2023/06/04 10:05:48;;;;;;;4.32;2.03;;;21.10;18.90;;;;;;10206355;29;20329;-85
2023/06/04 10:10:54;;;;;;;12.27;1.15;;;21.00;14.00;;;;;;10188696;29;20630;-85
2023/06/04 10:15:58;;;;;;;1.65;1.10;;;21.20;20.30;;;;;;10205912;29;20716;-83
2023/06/04 10:21:02;;;;;;;1.02;0.80;;;21.20;18.80;;;;;;10188154;29;20705;-83
2023/06/04 10:26:04;;;;;;;1.60;1.08;;;21.30;18.70;;;;;;10205520;29;20246;-83
2023/06/04 10:31:10;;;;;;;4.28;1.40;;;21.40;19.50;;;;;;10189506;29;20266;-83
2023/06/04 10:36:20;;;;;;;1.00;0.90;;;21.30;10.20;;;;;;10188949;29;20810;-82
2023/06/04 10:41:23;;;;;;;0.88;0.80;;;21.40;16.10;;;;;;10205442;29;20262;-86
2023/06/04 10:46:36;;;;;;;4.72;1.30;;;21.50;12.90;;;;;;10188527;29;20235;-85
2023/06/04 10:51:40;;;;;;;1.20;0.90;;;21.50;13.40;;;;;;10201685;29;20298;-83
2023/06/04 10:56:43;;;;;;;1.52;1.00;;;21.70;17.90;;;;;;10161876;29;20266;-82
2023/06/04 11:01:46;;;;;;;1.85;0.85;;;21.70;14.60;;;;;;10200714;29;20643;-82
2023/06/04 11:07:04;;;;;;;1.02;0.70;;;21.90;17.50;;;;;;10208567;29;20200;-82
2023/06/04 11:12:07;;;;;;;1.63;0.90;;;21.80;10.10;;;;;;10194453;29;20270;-84
2023/06/04 11:17:11;;;;;;;1.33;0.88;;;21.80;12.90;;;;;;10213776;29;20764;-85
2023/06/04 11:22:13;;;;;;;3.00;1.10;;;22.00;19.10;;;;;;10186630;29;20294;-83
2023/06/04 11:27:16;;;;;;;1.08;0.88;;;21.90;15.80;;;;;;10213059;29;20250;-82
2023/06/04 11:32:37;;;;;;;1.70;0.90;;;21.80;10.50;;;;;;10210352;29;20625;-82
2023/06/04 11:37:40;;;;;;;1.30;0.70;;;21.90;12.00;;;;;;10207990;29;20322;-83
2023/06/04 11:42:43;;;;;;;3.50;1.15;;;21.90;10.90;;;;;;10191801;29;21130;-83
2023/06/04 11:48:05;;;;;;;1.60;0.98;;;21.90;9.10;;;;;;10202970;29;20247;-83
2023/06/04 11:53:09;;;;;;;1.48;0.80;;;22.10;10.30;;;;;;10183320;29;20282;-83
2023/06/04 11:58:12;;;;;;;1.52;1.10;;;22.20;12.00;;;;;;10200239;29;20242;-83
2023/06/04 12:03:14;;;;;;;1.50;1.05;;;22.10;16.10;;;;;;10199271;29;20697;-81
2023/06/04 12:08:17;;;;;;;1.33;0.80;;;22.10;11.80;;;;;;10210877;29;20246;-82
2023/06/04 12:13:19;;;;;;;1.73;1.10;;;21.90;17.50;;;;;;10209767;29;20250;-82
2023/06/04 12:18:25;;;;;;;2.75;1.52;;;21.80;8.20;;;;;;10211246;29;20310;-82
2023/06/04 12:23:28;;;;;;;1.27;0.90;;;21.50;6.90;;;;;;10211217;29;20700;-83
2023/06/04 12:28:31;;;;;;;2.95;1.00;;;21.60;9.60;;;;;;10191267;29;20647;-82
2023/06/04 12:33:33;;;;;;;5.00;0.68;;;21.60;6.80;;;;;;10177280;29;20364;-82
2023/06/04 12:38:35;;;;;;;1.63;0.93;;;21.80;7.50;;;;;;9851526;29;9999952;-82
2023/06/04 12:43:38;;;;;;;3.00;0.90;;;21.90;9.20;;;;;;10192923;29;20258;-82
2023/06/04 12:48:41;;;;;;;3.50;1.02;;;22.10;10.80;;;;;;10182762;29;20243;-81
2023/06/04 12:53:44;;;;;;;1.67;0.90;;;22.10;8.90;;;;;;10208206;29;20271;-81
2023/06/04 12:58:46;;;;;;;3.45;1.30;;;22.10;12.30;;;;;;10187689;29;20263;-81
2023/06/04 13:03:49;;;;;;;1.10;0.90;;;22.20;8.50;;;;;;10207667;29;20700;-84
2023/06/04 13:08:52;;;;;;;1.83;1.08;;;22.30;8.40;;;;;;10208417;29;20297;-82
2023/06/04 13:13:54;;;;;;;2.60;1.00;;;22.20;12.70;;;;;;10204249;29;20701;-81
2023/06/04 13:18:57;;;;;;;1.58;0.82;;;22.20;9.00;;;;;;10207015;29;20620;-82
2023/06/04 13:24:00;;;;;;;1.98;0.82;;;22.20;7.20;;;;;;10206534;29;20267;-82
2023/06/04 13:29:03;;;;;;;1.52;0.95;;;22.40;15.40;;;;;;10189950;29;20327;-82
2023/06/04 13:34:06;;;;;;;2.50;1.10;;;22.30;10.70;;;;;;10179439;29;20274;-81
2023/06/04 13:39:27;;;;;;;1.33;0.95;;;22.20;12.50;;;;;;10190985;29;20266;-82
2023/06/04 13:44:29;;;;;;;1.35;1.00;;;22.30;15.40;;;;;;10181572;29;20251;-82
2023/06/04 13:49:35;;;;;;;3.05;0.80;;;22.20;8.00;;;;;;10197565;29;20254;-85
2023/06/04 13:54:38;;;;;;;1.15;0.75;;;22.30;7.30;;;;;;10188912;29;20677;-83
2023/06/04 13:59:40;;;;;;;1.45;0.70;;;22.30;8.80;;;;;;10189023;29;20247;-85
2023/06/04 14:04:43;;;;;;;1.10;0.98;;;22.40;11.90;;;;;;10205033;29;20298;-85
2023/06/04 14:09:45;;;;;;;4.45;1.45;;;22.40;11.50;;;;;;10204750;29;20673;-80
2023/06/04 14:14:48;;;;;;;1.50;1.02;;;22.50;7.50;;;;;;10205734;29;20271;-81
2023/06/04 14:19:50;;;;;;;1.05;0.80;;;22.50;14.90;;;;;;10204704;29;20697;-82
2023/06/04 14:24:53;;;;;;;1.45;1.00;;;22.50;13.10;;;;;;10186788;29;20305;-83
2023/06/04 14:29:56;;;;;;;1.15;0.85;;;22.50;12.00;;;;;;10204691;29;20246;-83
2023/06/04 14:34:58;;;;;;;1.30;0.90;;;22.50;10.00;;;;;;10189191;29;20313;-83
2023/06/04 14:40:01;;;;;;;1.95;0.88;;;22.50;14.70;;;;;;10202088;29;20649;-83
2023/06/04 14:45:19;;;;;;;1.02;0.82;;;22.40;6.80;;;;;;10212230;29;20254;-86
2023/06/04 14:50:25;;;;;;;0.98;0.80;;;22.50;15.60;;;;;;10197657;29;20238;-83
2023/06/04 14:55:27;;;;;;;0.70;0.70;;;22.50;13.70;;;;;;10194478;29;20318;-85
2023/06/04 15:00:30;;;;;;;1.23;0.80;;;22.50;14.20;;;;;;10213296;29;20242;-85
2023/06/04 15:05:33;;;;;;;1.95;1.13;;;22.50;14.20;;;;;;10196603;29;20242;-85
2023/06/04 15:10:36;;;;;;;3.35;0.93;;;22.50;15.50;;;;;;10213205;29;20239;-83
2023/06/04 15:15:38;;;;;;;0.70;0.70;;;22.40;7.60;;;;;;10212101;29;20712;-83
2023/06/04 15:20:41;;;;;;;2.00;1.10;;;22.40;11.40;;;;;;10212657;29;20238;-82
2023/06/04 15:25:44;;;;;;;0.60;0.55;;;22.40;5.90;;;;;;10211527;29;20254;-82
2023/06/04 15:30:47;;;;;;;1.58;1.00;;;22.30;8.20;;;;;;10194441;29;20238;-82
2023/06/04 15:35:49;;;;;;;1.83;1.00;;;22.30;12.20;;;;;;10211643;29;20388;-85
2023/06/04 15:40:52;;;;;;;1.52;0.80;;;22.40;9.80;;;;;;10210037;29;20262;-82
2023/06/04 15:45:54;;;;;;;1.33;0.90;;;22.30;12.00;;;;;;10194089;29;20250;-83
2023/06/04 15:50:57;;;;;;;2.03;1.25;;;22.40;13.50;;;;;;10212310;29;20271;-83
2023/06/04 15:56:00;;;;;;;1.20;0.80;;;22.40;11.10;;;;;;10190836;29;20316;-82
2023/06/04 16:01:02;;;;;;;2.25;0.98;;;22.30;14.00;;;;;;10210499;29;20293;-84
2023/06/04 16:06:05;;;;;;;0.90;0.75;;;22.40;9.30;;;;;;10201466;29;20243;-84
2023/06/04 16:11:08;;;;;;;0.80;0.70;;;22.30;15.80;;;;;;10210673;29;20250;-84
2023/06/04 16:16:11;;;;;;;1.60;0.85;;;22.40;14.70;;;;;;10210890;29;20710;-81
2023/06/04 16:21:14;;;;;;;1.77;0.98;;;22.50;16.90;;;;;;10208875;29;20654;-81
2023/06/04 16:26:17;;;;;;;10.45;1.13;;;22.50;16.20;;;;;;10210021;29;20286;-84
2023/06/04 16:31:20;;;;;;;2.70;0.98;;;22.50;14.10;;;;;;10209199;29;20691;-82
2023/06/04 16:36:23;;;;;;;1.63;0.80;;;22.60;8.80;;;;;;10210147;29;20262;-84
2023/06/04 16:41:26;;;;;;;1.60;0.80;;;22.60;8.10;;;;;;10223741;23;20312;-82
2023/06/04 16:46:28;;;;;;;4.40;0.95;;;22.60;7.20;;;;;;10209303;29;20484;-82
2023/06/04 16:51:31;;;;;;;2.17;1.10;;;22.60;5.60;;;;;;10210223;29;20239;-83
2023/06/04 16:56:33;;;;;;;4.20;1.20;;;22.60;8.00;;;;;;10192543;29;20321;-82
2023/06/04 17:01:36;;;;;;;1.60;1.00;;;22.50;7.20;;;;;;10209994;29;20238;-82
2023/06/04 17:06:40;;;;;;;3.80;1.35;;;22.40;8.00;;;;;;10209468;29;20642;-82
2023/06/04 17:11:43;;;;;;;1.67;0.73;;;22.20;6.60;;;;;;10209797;29;20274;-82
2023/06/04 17:16:46;;;;;;;2.38;0.75;;;22.00;6.50;;;;;;10209696;29;20258;-83
2023/06/04 17:21:48;;;;;;;3.17;1.10;;;22.00;7.90;;;;;;10192732;29;20234;-83
2023/06/04 17:26:51;;;;;;;3.08;1.48;;;21.90;8.50;;;;;;10208377;29;20297;-83
2023/06/04 17:31:53;;;;;;;1.48;0.73;;;21.80;7.00;;;;;;10208470;29;20254;-82
2023/06/04 17:36:56;;;;;;;4.05;1.65;;;21.60;9.90;;;;;;10207854;29;20294;-83
2023/06/04 17:42:00;;;;;;;1.85;1.27;;;21.50;8.00;;;;;;10208705;29;20259;-81
2023/06/04 17:47:05;;;;;;;3.13;1.40;;;21.40;8.00;;;;;;10189950;29;20668;-83
2023/06/04 17:52:08;;;;;;;2.05;1.00;;;21.30;9.60;;;;;;10190218;29;21011;-85
2023/06/04 17:57:10;;;;;;;10.77;1.48;;;21.10;9.10;;;;;;10211924;29;20638;-85
2023/06/04 18:02:13;;;;;;;3.90;1.38;;;20.70;9.10;;;;;;10187577;29;20247;-87
2023/06/04 18:07:15;;;;;;;4.18;1.15;;;20.30;10.50;;;;;;10187966;29;20275;-85
2023/06/04 18:12:18;;;;;;;7.93;1.10;;;19.90;11.80;;;;;;10188859;29;20690;-85
2023/06/04 18:17:21;;;;;;;2.97;1.10;;;19.50;14.30;;;;;;10203100;29;20341;-85
2023/06/04 18:22:23;;;;;;;13.25;1.90;;;19.00;16.00;;;;;;10207596;29;20263;-86
2023/06/04 18:27:26;;;;;;;12.55;1.67;;;18.60;14.70;;;;;;10181453;29;20309;-85
2023/06/04 18:32:29;;;;;;;18.05;2.40;;;18.10;18.10;;;;;;10169482;29;20622;-86
2023/06/04 18:37:31;;;;;;;12.43;2.53;;;18.00;18.90;;;;;;10194718;29;20262;-86
2023/06/04 18:42:34;;;;;;;38.50;4.00;;;17.60;20.00;;;;;;10204338;29;20262;-86
2023/06/04 18:47:37;;;;;;;15.95;3.13;;;17.20;20.50;;;;;;10203740;29;20779;-84
2023/06/04 18:52:40;;;;;;;17.38;2.72;;;17.10;21.50;;;;;;10204416;29;20254;-84
2023/06/04 18:57:42;;;;;;;20.85;2.75;;;16.80;22.70;;;;;;10204034;29;20306;-84
2023/06/04 19:02:45;;;;;;;20.20;3.85;;;16.50;23.50;;;;;;10199039;29;20306;-84
2023/06/04 19:07:48;;;;;;;11.02;3.42;;;16.30;25.50;;;;;;10217299;29;20254;-85
2023/06/04 19:12:51;;;;;;;15.00;2.95;;;16.00;27.00;;;;;;10205074;29;20776;-83
2023/06/04 19:17:54;;;;;;;10.38;2.25;;;15.80;28.50;;;;;;10184885;29;20262;-84
2023/06/04 19:22:56;;;;;;;8.52;2.00;;;15.50;29.20;;;;;;10203358;29;20243;-84
2023/06/04 19:27:59;;;;;;;11.07;2.25;;;15.40;31.20;;;;;;10205789;29;20685;-84
2023/06/04 19:33:01;;;;;;;8.43;2.33;;;15.10;33.20;;;;;;10211612;29;20230;-83
2023/06/04 19:38:05;;;;;;;6.93;1.73;;;14.90;34.90;;;;;;10209649;29;20685;-84
2023/06/04 19:43:09;;;;;;;12.77;2.42;;;14.90;37.30;;;;;;10207040;29;20728;-84
2023/06/04 19:48:11;;;;;;;6.55;1.67;;;14.90;42.20;;;;;;10203289;29;20290;-84
2023/06/04 19:53:14;;;;;;;7.90;2.00;;;14.90;40.80;;;;;;10199478;29;20310;-84
2023/06/04 19:58:17;;;;;;;8.77;3.15;;;14.80;40.70;;;;;;10191014;29;20783;-84
2023/06/04 20:03:20;;;;;;;14.00;2.72;;;14.20;48.70;;;;;;10203704;29;20629;-84
2023/06/04 20:08:23;;;;;;;5.03;1.55;;;14.30;49.50;;;;;;10212737;29;20242;-84
2023/06/04 20:13:26;;;;;;;10.63;2.65;;;14.10;54.50;;;;;;10206499;29;20246;-84
2023/06/04 20:18:31;;;;;;;13.13;2.70;;;13.80;59.20;;;;;;10204361;29;20290;-84
2023/06/04 20:23:33;;;;;;;10.02;2.65;;;13.60;62.00;;;;;;10188556;29;20238;-84
2023/06/04 20:28:36;;;;;;;5.95;1.17;;;13.50;66.50;;;;;;10210097;29;20239;-84
2023/06/04 20:33:38;;;;;;;4.97;1.77;;;13.50;70.60;;;;;;10206076;29;20271;-84
2023/06/04 20:38:41;;;;;;;10.18;3.20;;;13.40;72.10;;;;;;10208835;29;20657;-83
2023/06/04 20:43:46;;;;;;;14.38;2.70;;;13.20;76.60;;;;;;10208790;29;20230;-84
2023/06/04 20:48:49;;;;;;;8.82;2.55;;;13.00;83.80;;;;;;10204926;29;20771;-84
2023/06/04 20:53:51;;;;;;;15.98;2.40;;;12.90;89.40;;;;;;10203024;29;20270;-84
2023/06/04 20:58:54;;;;;;;8.55;1.73;;;12.80;91.00;;;;;;10199896;29;20267;-85
2023/06/04 21:03:57;;;;;;;10.98;2.55;;;12.60;92.90;;;;;;10186247;29;20284;-85
2023/06/04 21:09:05;;;;;;;9.18;2.60;;;12.40;94.10;;;;;;10208195;29;20239;-85
2023/06/04 21:14:07;;;;;;;13.75;2.80;;;12.20;94.90;;;;;;10208559;29;20280;-85
2023/06/04 21:19:10;;;;;;;11.73;3.97;;;12.20;95.10;;;;;;10191234;29;20266;-85
2023/06/04 21:24:13;;;;;;;8.63;3.05;;;12.00;95.60;;;;;;10208037;29;20681;-84
2023/06/04 21:29:16;;;;;;;7.28;2.08;;;11.80;95.70;;;;;;10208019;29;20239;-85
2023/06/04 21:34:19;;;;;;;4.22;1.88;;;11.80;96.30;;;;;;10190829;29;20290;-85
2023/06/04 21:39:21;;;;;;;4.97;3.05;;;11.80;96.40;;;;;;10207910;29;20322;-85
2023/06/04 21:44:24;;;;;;;5.10;2.95;;;11.60;96.30;;;;;;10206973;29;20282;-85
2023/06/04 21:49:27;;;;;;;6.20;4.32;;;11.70;96.40;;;;;;10206605;29;20302;-85
2023/06/04 21:54:29;;;;;;;10.68;3.95;;;11.50;97.20;;;;;;10203943;29;20243;-85
2023/06/04 21:59:32;;;;;;;6.07;3.50;;;11.40;97.40;;;;;;10168186;29;20728;-85
2023/06/04 22:04:34;;;;;;;5.13;1.73;;;11.30;98.20;;;;;;10168336;29;20298;-85
2023/06/04 22:09:37;;;;;;;8.27;3.13;;;11.10;99.30;;;;;;10151263;29;20750;-85
2023/06/04 22:14:40;;;;;;;10.93;2.80;;;11.10;99.40;;;;;;10172910;29;20246;-85
2023/06/04 22:19:42;;;;;;;7.20;2.92;;;10.00;99.90;;;;;;10189507;29;20262;-85
2023/06/04 22:24:45;;;;;;;13.55;3.42;;;10.90;99.90;;;;;;10206979;29;20688;-84
2023/06/04 22:29:48;;;;;;;10.05;3.42;;;;;;;;;;10205145;29;20289;-84
2023/06/04 22:34:50;;;;;;;7.20;2.85;;;10.70;99.90;;;;;;10206544;29;20250;-84
2023/06/04 22:39:53;;;;;;;10.88;4.50;;;10.60;99.90;;;;;;10205286;29;20290;-85
2023/06/04 22:44:55;;;;;;;20.05;6.10;;;10.70;99.90;;;;;;10188811;29;20246;-85
2023/06/04 22:49:58;;;;;;;14.15;6.78;;;10.70;99.90;;;;;;10183169;29;20279;-85
2023/06/04 22:55:01;;;;;;;13.25;5.28;;;10.70;99.90;;;;;;10188588;29;20250;-85
2023/06/04 23:00:07;;;;;;;12.93;4.65;;;10.60;99.90;;;;;;10205223;29;20262;-85
2023/06/04 23:05:10;;;;;;;9.70;3.15;;;10.60;99.90;;;;;;10210504;29;20806;-85
2023/06/04 23:10:12;;;;;;;7.40;3.53;;;10.40;99.90;;;;;;10196304;29;20297;-85
2023/06/04 23:15:22;;;;;;;9.10;3.72;;;10.30;99.90;;;;;;10196135;29;20604;-85
2023/06/04 23:20:25;;;;;;;5.90;3.17;;;10.20;99.90;;;;;;10181418;29;20338;-85
2023/06/04 23:25:27;;;;;;;6.28;2.78;;;10.10;99.90;;;;;;10213520;29;20302;-85
2023/06/04 23:30:30;;;;;;;6.85;3.03;;;10.10;99.90;;;;;;10212759;29;20637;-84
2023/06/04 23:35:32;;;;;;;8.27;3.00;;;10.10;99.90;;;;;;10213305;29;20744;-84
2023/06/04 23:40:35;;;;;;;5.82;2.05;;;9.70;99.90;;;;;;10212274;29;20246;-84
2023/06/04 23:45:37;;;;;;;4.43;2.03;;;9.70;99.90;;;;;;10212875;29;20309;-84
2023/06/04 23:50:40;;;;;;;11.23;2.53;;;9.80;99.90;;;;;;10195782;29;20605;-84
2023/06/04 23:55:43;;;;;;;3.42;2.30;;;9.90;99.90;;;;;;10211201;29;20680;-84
